University of Illinois Willard Airport
KCMI : now visible

Airfield :











YOU CAN JOIN US ON...

 
LOGIN :

Register | Disclaimer

   EN    FR    IT 

 









Legend :    VFR   Marginal VFR   IFR   Intensive IFR   Very Intensive IFR
Visi :
Ceiling :
>= 8 km
>= 3000ft
5 to 8 km
1000 to 3000 ft
1500m to 5 km
500 to 1000 ft
800 to 1500m
200 to 500 ft
< 800m
< 200 ft
Symbols :   Thunderstorms  Fog  Heavy snow  Heavy precipitations  Wind > 20 kt






- Airport Elevation : 755 ft
- IATA code : CMI


KCMI - University of Illinois Willard

CURRENT METAR :
  • 220153Z 21006KT 10SM SCT060 OVC075 05/00 A3012 RMK AO2 SLP205 T00500000

EXPIRED METARs :
  • 220053Z 26006KT 10SM OVC075 06/M01 A3011 RMK AO2 SLP201 T00561006
  • 212353Z 31008KT 10SM BKN085 06/M01 A3010 RMK AO2 PK WND 32029/2254 RAB2254E12 SLP199 P0000 60000 T00611011 10094 20050 58006

TAF KCMI
Valid from the 22 at 00:00 until the 23 at 00:00 UTC


212334Z 2200/2224 30012G20KT P6SM VCSH BKN060
FM220200 28007KT P6SM SCT070
FM220800 27005KT P6SM SKC
FM221600 27013KT P6SM SKC
KZAU FIR / North America



MET'MAP, your aeronautical weather chart ! - Copyright ORBIFLY December 2007 - Disclaimer

ORBIFLY MET'MAP TEAM :

Programming & Development : Alexandra Zaïnal
Concept & original design : Baudouin d'Aumeries
Assistance for programming : Marc-Olivier Méhu
Technical & hardware support : Manuel Goepfert

Contact : metmap@orbifly.com




SOURCES & CREDITS :

   NOAA       Earth
Advisory